AAL1490 KCLT-KDCA
Flight info
| Callsign | AAL1490 |
|---|---|
| Flight time | 0h 54m |
| Altitude | 37000 |
| Route | KILNS5 AUDII WAVES CAPSS4 |
| Aircraft | A320/M-SDE3FGHIRWY/LB1 |
Departure
| Time | 2026-05-06 19:48 |
|---|---|
| Airport | Charlotte Douglas International Airport (KCLT) |
Arrival
| Time | 2026-05-06 20:42 |
|---|---|
| Airport | Ronald Reagan Washington National Airport (KDCA) |
| Time | Latitude | Longitude | Altitude | Speed | Heading |
|---|---|---|---|---|---|
| 2026-05-06 19:31 | 35.21923 | -80.94315 | 725 ft | 0 kts | 66° |
| 2026-05-06 19:39 | 35.21917 | -80.94331 | 724 ft | 2 kts | 66° |
| 2026-05-06 19:39 | 35.21911 | -80.94347 | 724 ft | 2 kts | 67° |
| 2026-05-06 19:40 | 35.21906 | -80.94363 | 724 ft | 2 kts | 94° |
| 2026-05-06 19:40 | 35.21912 | -80.94380 | 723 ft | 2 kts | 141° |
| 2026-05-06 19:40 | 35.21921 | -80.94385 | 723 ft | 0 kts | 172° |
| 2026-05-06 19:40 | 35.21929 | -80.94386 | 724 ft | 1 kts | 177° |
| 2026-05-06 19:41 | 35.21930 | -80.94386 | 724 ft | 0 kts | 176° |
| 2026-05-06 19:42 | 35.21928 | -80.94386 | 723 ft | 1 kts | 176° |
| 2026-05-06 19:43 | 35.21910 | -80.94385 | 723 ft | 4 kts | 176° |
| 2026-05-06 19:43 | 35.21873 | -80.94380 | 723 ft | 6 kts | 168° |
| 2026-05-06 19:43 | 35.21824 | -80.94363 | 723 ft | 8 kts | 163° |
| 2026-05-06 19:43 | 35.21759 | -80.94341 | 721 ft | 10 kts | 174° |
| 2026-05-06 19:44 | 35.21675 | -80.94331 | 720 ft | 13 kts | 172° |
| 2026-05-06 19:44 | 35.21635 | -80.94244 | 721 ft | 13 kts | 93° |
| 2026-05-06 19:44 | 35.21657 | -80.94149 | 723 ft | 11 kts | 51° |
| 2026-05-06 19:44 | 35.21706 | -80.94078 | 725 ft | 10 kts | 34° |
| 2026-05-06 19:45 | 35.21759 | -80.94025 | 727 ft | 9 kts | 41° |
| 2026-05-06 19:45 | 35.21800 | -80.93957 | 729 ft | 13 kts | 55° |
| 2026-05-06 19:45 | 35.21863 | -80.93868 | 732 ft | 13 kts | 48° |
| 2026-05-06 19:45 | 35.21926 | -80.93782 | 733 ft | 13 kts | 49° |
| 2026-05-06 19:46 | 35.21995 | -80.93708 | 735 ft | 10 kts | 353° |
| 2026-05-06 19:46 | 35.22068 | -80.93713 | 736 ft | 13 kts | 1° |
| 2026-05-06 19:46 | 35.22198 | -80.93726 | 738 ft | 20 kts | 354° |
| 2026-05-06 19:46 | 35.22340 | -80.93740 | 737 ft | 20 kts | 357° |
| 2026-05-06 19:47 | 35.22474 | -80.93750 | 737 ft | 10 kts | 2° |
| 2026-05-06 19:47 | 35.22507 | -80.93679 | 739 ft | 10 kts | 86° |
| 2026-05-06 19:47 | 35.22489 | -80.93620 | 739 ft | 7 kts | 156° |
| 2026-05-06 19:47 | 35.22447 | -80.93614 | 739 ft | 13 kts | 176° |
| 2026-05-06 19:48 | 35.22025 | -80.93584 | 738 ft | 106 kts | 177° |
| 2026-05-06 19:48 | 35.21024 | -80.93489 | 833 ft | 171 kts | 176° |
| 2026-05-06 19:48 | 35.19801 | -80.93354 | 1617 ft | 182 kts | 176° |
| 2026-05-06 19:48 | 35.18600 | -80.93154 | 2849 ft | 178 kts | 172° |
| 2026-05-06 19:49 | 35.17499 | -80.92418 | 3604 ft | 196 kts | 143° |
| 2026-05-06 19:49 | 35.16564 | -80.91098 | 4136 ft | 216 kts | 134° |
| 2026-05-06 19:49 | 35.15840 | -80.89425 | 4634 ft | 242 kts | 104° |
| 2026-05-06 19:49 | 35.16029 | -80.87318 | 5125 ft | 265 kts | 69° |
| 2026-05-06 19:50 | 35.16861 | -80.85238 | 5653 ft | 284 kts | 59° |
| 2026-05-06 19:50 | 35.17856 | -80.83054 | 6221 ft | 302 kts | 59° |
| 2026-05-06 19:50 | 35.18845 | -80.80742 | 7004 ft | 312 kts | 60° |
| 2026-05-06 19:50 | 35.19780 | -80.78385 | 7874 ft | 316 kts | 62° |
| 2026-05-06 19:51 | 35.20705 | -80.75917 | 8779 ft | 320 kts | 62° |
| 2026-05-06 19:51 | 35.21601 | -80.73444 | 9620 ft | 325 kts | 62° |
| 2026-05-06 19:51 | 35.22503 | -80.70918 | 10383 ft | 332 kts | 62° |
| 2026-05-06 19:51 | 35.23456 | -80.68240 | 10947 ft | 348 kts | 62° |
| 2026-05-06 19:52 | 35.24421 | -80.65509 | 11618 ft | 357 kts | 62° |
| 2026-05-06 19:52 | 35.25398 | -80.62721 | 12360 ft | 363 kts | 62° |
| 2026-05-06 19:52 | 35.26388 | -80.59888 | 13068 ft | 369 kts | 62° |
| 2026-05-06 19:52 | 35.27412 | -80.56957 | 13782 ft | 375 kts | 62° |
| 2026-05-06 19:53 | 35.28434 | -80.54034 | 14477 ft | 380 kts | 62° |
| 2026-05-06 19:53 | 35.29465 | -80.51069 | 15225 ft | 382 kts | 62° |
| 2026-05-06 19:53 | 35.30505 | -80.48077 | 15968 ft | 384 kts | 62° |
| 2026-05-06 19:53 | 35.31551 | -80.45071 | 16658 ft | 387 kts | 62° |
| 2026-05-06 19:54 | 35.32605 | -80.42045 | 17304 ft | 391 kts | 62° |
| 2026-05-06 19:54 | 35.33670 | -80.38979 | 18020 ft | 394 kts | 62° |
| 2026-05-06 19:54 | 35.34742 | -80.35895 | 18662 ft | 396 kts | 62° |
| 2026-05-06 19:54 | 35.35820 | -80.32794 | 19289 ft | 399 kts | 63° |
| 2026-05-06 19:55 | 35.36903 | -80.29678 | 19882 ft | 403 kts | 63° |
| 2026-05-06 19:55 | 35.37997 | -80.26517 | 20500 ft | 405 kts | 63° |
| 2026-05-06 19:55 | 35.39104 | -80.23315 | 21066 ft | 409 kts | 63° |
| 2026-05-06 19:55 | 35.40216 | -80.20090 | 21613 ft | 412 kts | 63° |
| 2026-05-06 19:56 | 35.41316 | -80.16894 | 22185 ft | 414 kts | 63° |
| 2026-05-06 19:56 | 35.42442 | -80.13633 | 22717 ft | 417 kts | 63° |
| 2026-05-06 19:56 | 35.43572 | -80.10355 | 23248 ft | 420 kts | 64° |
| 2026-05-06 19:56 | 35.44703 | -80.07062 | 23706 ft | 425 kts | 64° |
| 2026-05-06 19:57 | 35.45858 | -80.03695 | 24211 ft | 428 kts | 64° |
| 2026-05-06 19:57 | 35.47013 | -80.00332 | 24718 ft | 431 kts | 64° |
| 2026-05-06 19:57 | 35.48170 | -79.96944 | 25185 ft | 434 kts | 63° |
| 2026-05-06 19:57 | 35.49340 | -79.93535 | 25629 ft | 438 kts | 64° |
| 2026-05-06 19:58 | 35.50532 | -79.90051 | 26068 ft | 442 kts | 64° |
| 2026-05-06 19:58 | 35.51713 | -79.86591 | 26524 ft | 445 kts | 64° |
| 2026-05-06 19:58 | 35.52901 | -79.83096 | 26981 ft | 447 kts | 64° |
| 2026-05-06 19:58 | 35.54080 | -79.79533 | 27389 ft | 451 kts | 66° |
| 2026-05-06 19:59 | 35.55203 | -79.75953 | 27793 ft | 455 kts | 66° |
| 2026-05-06 19:59 | 35.56335 | -79.72297 | 28212 ft | 458 kts | 66° |
| 2026-05-06 19:59 | 35.57464 | -79.68634 | 28593 ft | 461 kts | 66° |
| 2026-05-06 19:59 | 35.58606 | -79.64952 | 28987 ft | 464 kts | 66° |
| 2026-05-06 20:00 | 35.59749 | -79.61269 | 29353 ft | 467 kts | 66° |
| 2026-05-06 20:00 | 35.60909 | -79.57533 | 29741 ft | 470 kts | 66° |
| 2026-05-06 20:00 | 35.62076 | -79.53773 | 30113 ft | 472 kts | 65° |
| 2026-05-06 20:00 | 35.63241 | -79.50011 | 30434 ft | 476 kts | 65° |
| 2026-05-06 20:01 | 35.64418 | -79.46213 | 30733 ft | 480 kts | 64° |
| 2026-05-06 20:01 | 35.65613 | -79.42362 | 31087 ft | 482 kts | 64° |
| 2026-05-06 20:01 | 35.66801 | -79.38511 | 31438 ft | 485 kts | 64° |
| 2026-05-06 20:01 | 35.68081 | -79.34669 | 31728 ft | 485 kts | 59° |
| 2026-05-06 20:02 | 35.69635 | -79.31021 | 31985 ft | 483 kts | 52° |
| 2026-05-06 20:02 | 35.71478 | -79.27635 | 32240 ft | 480 kts | 46° |
| 2026-05-06 20:02 | 35.73593 | -79.24515 | 32522 ft | 474 kts | 38° |
| 2026-05-06 20:02 | 35.75963 | -79.21689 | 32852 ft | 467 kts | 31° |
| 2026-05-06 20:03 | 35.78465 | -79.19234 | 33112 ft | 463 kts | 26° |
| 2026-05-06 20:03 | 35.81057 | -79.16891 | 33436 ft | 462 kts | 26° |
| 2026-05-06 20:03 | 35.83663 | -79.14564 | 33693 ft | 465 kts | 25° |
| 2026-05-06 20:03 | 35.86279 | -79.12221 | 33892 ft | 469 kts | 26° |
| 2026-05-06 20:04 | 35.88929 | -79.09822 | 34172 ft | 471 kts | 26° |
| 2026-05-06 20:04 | 35.91565 | -79.07413 | 34423 ft | 473 kts | 25° |
| 2026-05-06 20:04 | 35.94193 | -79.05006 | 34729 ft | 473 kts | 26° |
| 2026-05-06 20:04 | 35.96841 | -79.02573 | 35080 ft | 473 kts | 26° |
| 2026-05-06 20:05 | 35.99458 | -79.00164 | 35410 ft | 472 kts | 25° |
| 2026-05-06 20:05 | 36.02096 | -78.97730 | 35767 ft | 471 kts | 25° |
| 2026-05-06 20:05 | 36.04706 | -78.95327 | 35905 ft | 474 kts | 25° |
| 2026-05-06 20:05 | 36.07372 | -78.92869 | 36101 ft | 476 kts | 25° |
| 2026-05-06 20:06 | 36.10025 | -78.90426 | 36231 ft | 479 kts | 25° |
| 2026-05-06 20:06 | 36.12690 | -78.87968 | 36410 ft | 480 kts | 25° |
| 2026-05-06 20:06 | 36.15351 | -78.85503 | 36650 ft | 481 kts | 25° |
| 2026-05-06 20:06 | 36.18037 | -78.83005 | 36888 ft | 480 kts | 25° |
| 2026-05-06 20:07 | 36.23373 | -78.77999 | 36939 ft | 486 kts | 26° |
| 2026-05-06 20:07 | 36.28701 | -78.72856 | 36938 ft | 486 kts | 26° |
| 2026-05-06 20:08 | 36.33966 | -78.67752 | 36936 ft | 482 kts | 26° |
| 2026-05-06 20:08 | 36.39307 | -78.62592 | 36938 ft | 484 kts | 26° |
| 2026-05-06 20:09 | 36.44575 | -78.57494 | 36934 ft | 485 kts | 26° |
| 2026-05-06 20:09 | 36.49879 | -78.52350 | 36928 ft | 485 kts | 26° |
| 2026-05-06 20:10 | 36.55190 | -78.47195 | 36926 ft | 485 kts | 26° |
| 2026-05-06 20:10 | 36.60514 | -78.42018 | 36919 ft | 487 kts | 26° |
| 2026-05-06 20:11 | 36.65814 | -78.36846 | 36917 ft | 485 kts | 26° |
| 2026-05-06 20:11 | 36.71153 | -78.31636 | 36918 ft | 487 kts | 27° |
| 2026-05-06 20:12 | 36.76458 | -78.26446 | 36925 ft | 486 kts | 27° |
| 2026-05-06 20:12 | 36.81752 | -78.21252 | 36922 ft | 486 kts | 27° |
| 2026-05-06 20:13 | 36.87058 | -78.16048 | 36241 ft | 487 kts | 27° |
| 2026-05-06 20:13 | 36.89742 | -78.13422 | 35411 ft | 489 kts | 28° |
| 2026-05-06 20:13 | 36.92392 | -78.10826 | 34598 ft | 490 kts | 28° |
| 2026-05-06 20:14 | 36.95052 | -78.08211 | 33901 ft | 488 kts | 30° |
| 2026-05-06 20:14 | 36.97722 | -78.05575 | 33425 ft | 482 kts | 30° |
| 2026-05-06 20:14 | 37.00320 | -78.03000 | 32998 ft | 476 kts | 30° |
| 2026-05-06 20:14 | 37.02875 | -78.00468 | 32536 ft | 471 kts | 30° |
| 2026-05-06 20:15 | 37.05452 | -77.97919 | 32067 ft | 467 kts | 30° |
| 2026-05-06 20:15 | 37.07978 | -77.95412 | 31619 ft | 463 kts | 30° |
| 2026-05-06 20:15 | 37.10485 | -77.92932 | 31168 ft | 459 kts | 31° |
| 2026-05-06 20:15 | 37.12983 | -77.90459 | 30710 ft | 455 kts | 31° |
| 2026-05-06 20:16 | 37.15421 | -77.88040 | 30257 ft | 451 kts | 31° |
| 2026-05-06 20:16 | 37.17862 | -77.85614 | 29801 ft | 448 kts | 31° |
| 2026-05-06 20:16 | 37.20286 | -77.83209 | 29333 ft | 444 kts | 31° |
| 2026-05-06 20:16 | 37.22720 | -77.80790 | 28881 ft | 441 kts | 31° |
| 2026-05-06 20:17 | 37.25101 | -77.78418 | 28436 ft | 437 kts | 31° |
| 2026-05-06 20:17 | 37.27462 | -77.76064 | 27982 ft | 435 kts | 31° |
| 2026-05-06 20:17 | 37.29820 | -77.73711 | 27538 ft | 431 kts | 31° |
| 2026-05-06 20:17 | 37.32150 | -77.71386 | 27094 ft | 428 kts | 31° |
| 2026-05-06 20:18 | 37.34484 | -77.69053 | 26647 ft | 425 kts | 31° |
| 2026-05-06 20:18 | 37.36772 | -77.66772 | 26208 ft | 421 kts | 31° |
| 2026-05-06 20:18 | 37.39062 | -77.64483 | 25759 ft | 419 kts | 31° |
| 2026-05-06 20:18 | 37.41327 | -77.62214 | 25314 ft | 417 kts | 31° |
| 2026-05-06 20:19 | 37.43579 | -77.59958 | 24877 ft | 414 kts | 31° |
| 2026-05-06 20:19 | 37.45809 | -77.57724 | 24440 ft | 411 kts | 30° |
| 2026-05-06 20:19 | 37.48053 | -77.55472 | 23998 ft | 409 kts | 30° |
| 2026-05-06 20:19 | 37.50267 | -77.53249 | 23559 ft | 407 kts | 30° |
| 2026-05-06 20:20 | 37.52453 | -77.51054 | 23121 ft | 405 kts | 30° |
| 2026-05-06 20:20 | 37.54653 | -77.48843 | 22687 ft | 404 kts | 30° |
| 2026-05-06 20:20 | 37.56849 | -77.46652 | 22251 ft | 400 kts | 27° |
| 2026-05-06 20:20 | 37.59196 | -77.44868 | 21806 ft | 386 kts | 14° |
| 2026-05-06 20:21 | 37.61660 | -77.43749 | 21730 ft | 376 kts | 5° |
| 2026-05-06 20:21 | 37.64183 | -77.42955 | 21363 ft | 374 kts | 2° |
| 2026-05-06 20:21 | 37.66707 | -77.42229 | 20910 ft | 372 kts | 2° |
| 2026-05-06 20:21 | 37.69215 | -77.41499 | 20471 ft | 370 kts | 3° |
| 2026-05-06 20:22 | 37.71728 | -77.40745 | 20032 ft | 368 kts | 4° |
| 2026-05-06 20:22 | 37.74201 | -77.39988 | 19598 ft | 366 kts | 4° |
| 2026-05-06 20:22 | 37.76653 | -77.39232 | 19166 ft | 364 kts | 4° |
| 2026-05-06 20:22 | 37.79098 | -77.38478 | 18724 ft | 362 kts | 5° |
| 2026-05-06 20:23 | 37.81552 | -77.37719 | 18274 ft | 361 kts | 4° |
| 2026-05-06 20:23 | 37.83960 | -77.36974 | 17837 ft | 358 kts | 5° |
| 2026-05-06 20:23 | 37.86373 | -77.36224 | 17404 ft | 357 kts | 5° |
| 2026-05-06 20:23 | 37.88798 | -77.35474 | 16972 ft | 355 kts | 5° |
| 2026-05-06 20:24 | 37.91166 | -77.34740 | 16747 ft | 346 kts | 5° |
| 2026-05-06 20:24 | 37.93473 | -77.34026 | 16767 ft | 345 kts | 5° |
| 2026-05-06 20:24 | 37.95817 | -77.33308 | 16780 ft | 346 kts | 5° |
| 2026-05-06 20:24 | 37.98149 | -77.32592 | 16790 ft | 346 kts | 5° |
| 2026-05-06 20:25 | 38.00505 | -77.31870 | 16492 ft | 347 kts | 5° |
| 2026-05-06 20:25 | 38.02839 | -77.31152 | 16024 ft | 347 kts | 5° |
| 2026-05-06 20:25 | 38.05199 | -77.30426 | 15579 ft | 346 kts | 6° |
| 2026-05-06 20:25 | 38.07527 | -77.29704 | 15157 ft | 344 kts | 6° |
| 2026-05-06 20:26 | 38.09831 | -77.28984 | 14735 ft | 343 kts | 6° |
| 2026-05-06 20:26 | 38.12155 | -77.28252 | 14304 ft | 341 kts | 6° |
| 2026-05-06 20:26 | 38.14422 | -77.27538 | 13885 ft | 339 kts | 6° |
| 2026-05-06 20:26 | 38.16706 | -77.26819 | 13464 ft | 337 kts | 6° |
| 2026-05-06 20:27 | 38.18976 | -77.26107 | 13065 ft | 335 kts | 7° |
| 2026-05-06 20:27 | 38.21227 | -77.25334 | 12749 ft | 331 kts | 9° |
| 2026-05-06 20:27 | 38.23423 | -77.24508 | 12754 ft | 329 kts | 9° |
| 2026-05-06 20:27 | 38.25601 | -77.23681 | 12758 ft | 329 kts | 9° |
| 2026-05-06 20:28 | 38.27801 | -77.22843 | 12610 ft | 330 kts | 9° |
| 2026-05-06 20:28 | 38.30003 | -77.22012 | 12165 ft | 330 kts | 10° |
| 2026-05-06 20:28 | 38.32188 | -77.21184 | 11742 ft | 329 kts | 9° |
| 2026-05-06 20:28 | 38.34383 | -77.20351 | 11327 ft | 328 kts | 10° |
| 2026-05-06 20:29 | 38.36552 | -77.19528 | 10921 ft | 326 kts | 10° |
| 2026-05-06 20:29 | 38.38700 | -77.18705 | 10760 ft | 317 kts | 11° |
| 2026-05-06 20:29 | 38.40805 | -77.17888 | 10788 ft | 312 kts | 10° |
| 2026-05-06 20:29 | 38.42879 | -77.17085 | 10812 ft | 312 kts | 10° |
| 2026-05-06 20:30 | 38.44968 | -77.16279 | 10837 ft | 312 kts | 10° |
| 2026-05-06 20:30 | 38.49100 | -77.14686 | 10844 ft | 312 kts | 10° |
| 2026-05-06 20:30 | 38.51200 | -77.13876 | 10811 ft | 312 kts | 10° |
| 2026-05-06 20:31 | 38.53283 | -77.13072 | 10409 ft | 314 kts | 10° |
| 2026-05-06 20:31 | 38.55340 | -77.12277 | 10070 ft | 310 kts | 11° |
| 2026-05-06 20:31 | 38.57381 | -77.11481 | 10005 ft | 299 kts | 10° |
| 2026-05-06 20:31 | 38.59401 | -77.10699 | 9931 ft | 307 kts | 10° |
| 2026-05-06 20:32 | 38.61458 | -77.09914 | 9874 ft | 309 kts | 10° |
| 2026-05-06 20:32 | 38.63493 | -77.09129 | 9721 ft | 310 kts | 10° |
| 2026-05-06 20:32 | 38.65550 | -77.08337 | 9310 ft | 309 kts | 10° |
| 2026-05-06 20:32 | 38.67602 | -77.07560 | 8925 ft | 301 kts | 8° |
| 2026-05-06 20:33 | 38.69600 | -77.07024 | 8566 ft | 284 kts | 1° |
| 2026-05-06 20:33 | 38.71529 | -77.06766 | 8231 ft | 280 kts | 357° |
| 2026-05-06 20:33 | 38.73483 | -77.06582 | 7888 ft | 278 kts | 356° |
| 2026-05-06 20:33 | 38.75388 | -77.06435 | 7545 ft | 274 kts | 351° |
| 2026-05-06 20:34 | 38.77213 | -77.06876 | 7145 ft | 260 kts | 330° |
| 2026-05-06 20:34 | 38.78731 | -77.07961 | 6974 ft | 245 kts | 320° |
| 2026-05-06 20:34 | 38.80129 | -77.09132 | 6811 ft | 236 kts | 319° |
| 2026-05-06 20:34 | 38.81473 | -77.10263 | 6612 ft | 224 kts | 320° |
| 2026-05-06 20:35 | 38.82721 | -77.11364 | 6246 ft | 218 kts | 316° |
| 2026-05-06 20:35 | 38.83877 | -77.12578 | 6009 ft | 211 kts | 311° |
| 2026-05-06 20:35 | 38.84932 | -77.13859 | 5740 ft | 208 kts | 309° |
| 2026-05-06 20:35 | 38.85967 | -77.15151 | 5430 ft | 208 kts | 309° |
| 2026-05-06 20:36 | 38.86999 | -77.16440 | 5005 ft | 208 kts | 309° |
| 2026-05-06 20:36 | 38.88039 | -77.17747 | 4372 ft | 215 kts | 309° |
| 2026-05-06 20:36 | 38.89109 | -77.19088 | 3813 ft | 217 kts | 309° |
| 2026-05-06 20:36 | 38.90186 | -77.20428 | 3375 ft | 212 kts | 309° |
| 2026-05-06 20:37 | 38.91235 | -77.21729 | 3047 ft | 211 kts | 309° |
| 2026-05-06 20:37 | 38.92284 | -77.23039 | 3004 ft | 212 kts | 309° |
| 2026-05-06 20:37 | 38.93357 | -77.24372 | 3000 ft | 214 kts | 311° |
| 2026-05-06 20:37 | 38.94659 | -77.25350 | 2985 ft | 227 kts | 341° |
| 2026-05-06 20:38 | 38.96275 | -77.25275 | 2992 ft | 240 kts | 16° |
| 2026-05-06 20:38 | 38.97629 | -77.24041 | 2999 ft | 243 kts | 54° |
| 2026-05-06 20:38 | 38.98157 | -77.22087 | 3054 ft | 225 kts | 92° |
| 2026-05-06 20:38 | 38.97875 | -77.20207 | 3021 ft | 213 kts | 114° |
| 2026-05-06 20:39 | 38.97228 | -77.18526 | 2909 ft | 205 kts | 130° |
| 2026-05-06 20:39 | 38.96393 | -77.17078 | 2760 ft | 201 kts | 136° |
| 2026-05-06 20:39 | 38.95475 | -77.15730 | 2689 ft | 199 kts | 141° |
| 2026-05-06 20:39 | 38.94486 | -77.14509 | 2548 ft | 195 kts | 145° |
| 2026-05-06 20:40 | 38.93483 | -77.13354 | 2411 ft | 194 kts | 144° |
| 2026-05-06 20:40 | 38.92516 | -77.12140 | 2264 ft | 193 kts | 141° |
| 2026-05-06 20:40 | 38.91637 | -77.10884 | 1917 ft | 188 kts | 138° |
| 2026-05-06 20:40 | 38.90825 | -77.09590 | 1528 ft | 185 kts | 132° |
| 2026-05-06 20:41 | 38.90229 | -77.08160 | 1150 ft | 179 kts | 123° |
| 2026-05-06 20:41 | 38.89591 | -77.06873 | 824 ft | 161 kts | 135° |
| 2026-05-06 20:41 | 38.88900 | -77.05813 | 836 ft | 153 kts | 140° |
| 2026-05-06 20:41 | 38.88158 | -77.04823 | 632 ft | 153 kts | 143° |
| 2026-05-06 20:42 | 38.87308 | -77.04101 | 409 ft | 144 kts | 165° |
| 2026-05-06 20:42 | 38.86347 | -77.03886 | 130 ft | 139 kts | 179° |
| 2026-05-06 20:42 | 38.85389 | -77.03787 | 21 ft | 130 kts | 182° |
| 2026-05-06 20:42 | 38.84743 | -77.03741 | 20 ft | 49 kts | 174° |
| 2026-05-06 20:43 | 38.84460 | -77.03711 | 18 ft | 23 kts | 182° |
| 2026-05-06 20:43 | 38.84386 | -77.03793 | 17 ft | 8 kts | 260° |
| 2026-05-06 20:43 | 38.84402 | -77.03836 | 17 ft | 5 kts | 331° |
| 2026-05-06 20:43 | 38.84448 | -77.03843 | 17 ft | 8 kts | 357° |
| 2026-05-06 20:44 | 38.84515 | -77.03849 | 18 ft | 11 kts | 354° |
| 2026-05-06 20:44 | 38.84603 | -77.03861 | 19 ft | 13 kts | 354° |
| 2026-05-06 20:44 | 38.84698 | -77.03874 | 21 ft | 14 kts | 353° |
| 2026-05-06 20:44 | 38.84800 | -77.03883 | 22 ft | 15 kts | 0° |
| 2026-05-06 20:45 | 38.84877 | -77.03921 | 22 ft | 9 kts | 295° |
| 2026-05-06 20:45 | 38.84927 | -77.03955 | 23 ft | 9 kts | 0° |
| 2026-05-06 20:45 | 38.85022 | -77.03960 | 23 ft | 16 kts | 355° |
| 2026-05-06 20:45 | 38.85139 | -77.03975 | 23 ft | 16 kts | 356° |
| 2026-05-06 20:46 | 38.85256 | -77.03987 | 24 ft | 17 kts | 354° |
| 2026-05-06 20:46 | 38.85379 | -77.04001 | 24 ft | 17 kts | 355° |
| 2026-05-06 20:46 | 38.85476 | -77.04011 | 24 ft | 11 kts | 355° |
| 2026-05-06 20:46 | 38.85535 | -77.04026 | 24 ft | 4 kts | 314° |
| 2026-05-06 20:47 | 38.85541 | -77.04070 | 24 ft | 5 kts | 246° |
| 2026-05-06 20:47 | 38.85528 | -77.04116 | 26 ft | 5 kts | 250° |
| 2026-05-06 20:47 | 38.85517 | -77.04161 | 27 ft | 4 kts | 252° |
| 2026-05-06 20:47 | 38.85506 | -77.04212 | 28 ft | 7 kts | 253° |
| 2026-05-06 20:48 | 38.85493 | -77.04247 | 29 ft | 2 kts | 211° |
| 2026-05-06 20:48 | 38.85472 | -77.04247 | 29 ft | 4 kts | 159° |
| 2026-05-06 20:48 | 38.85444 | -77.04235 | 28 ft | 2 kts | 164° |
| 2026-05-06 20:48 | 38.85438 | -77.04233 | 28 ft | 0 kts | 164° |